createdAt,value
2023-08-06T00:01:30.250Z,6.57
2023-08-06T00:04:00.332Z,7.47
2023-08-06T00:06:28.719Z,7.00
2023-08-06T00:08:57.132Z,6.20
2023-08-06T00:11:27.318Z,6.97
2023-08-06T00:13:55.739Z,6.60
2023-08-06T00:16:24.285Z,6.77
2023-08-06T00:18:52.892Z,8.30
2023-08-06T00:21:21.221Z,7.70
2023-08-06T00:23:49.582Z,7.30
2023-08-06T00:26:18.009Z,6.90
2023-08-06T00:28:47.775Z,7.13
2023-08-06T00:31:16.240Z,7.23
2023-08-06T00:33:44.633Z,6.73
2023-08-06T00:36:12.982Z,7.13
2023-08-06T00:38:41.889Z,7.00
2023-08-06T00:41:10.841Z,7.20
2023-08-06T00:43:39.229Z,7.53
2023-08-06T00:46:09.135Z,6.67
2023-08-06T00:48:37.556Z,6.73
2023-08-06T00:51:06.031Z,7.43
2023-08-06T00:53:34.665Z,7.50
2023-08-06T00:56:03.328Z,6.80
2023-08-06T00:58:31.694Z,7.13
2023-08-06T01:01:00.240Z,7.47
2023-08-06T01:03:30.045Z,8.77
2023-08-06T01:05:58.558Z,7.97
2023-08-06T01:08:35.968Z,8.10
2023-08-06T01:11:15.937Z,7.60
2023-08-06T01:13:47.946Z,8.30
2023-08-06T01:16:17.735Z,8.07
2023-08-06T01:18:50.283Z,8.80
2023-08-06T01:21:20.204Z,8.03
2023-08-06T01:23:48.931Z,8.10
2023-08-06T01:26:21.675Z,7.83
2023-08-06T01:28:54.565Z,8.90
2023-08-06T01:31:26.870Z,8.47
2023-08-06T01:33:55.292Z,8.73
2023-08-06T01:36:25.102Z,7.43
2023-08-06T01:38:54.091Z,8.40
2023-08-06T01:41:22.484Z,9.37
2023-08-06T01:43:50.839Z,7.73
2023-08-06T01:46:19.363Z,7.33
2023-08-06T01:48:47.771Z,7.93
2023-08-06T01:51:16.211Z,7.73
2023-08-06T01:53:46.026Z,7.73
2023-08-06T01:56:14.492Z,7.13
2023-08-06T01:58:42.972Z,7.57
2023-08-06T02:01:11.373Z,7.77
2023-08-06T02:03:39.773Z,7.60
2023-08-06T02:06:08.196Z,7.30
2023-08-06T02:08:36.601Z,6.40
2023-08-06T02:11:06.460Z,7.40
2023-08-06T02:13:34.946Z,7.40
2023-08-06T02:16:03.497Z,6.60
2023-08-06T02:18:31.971Z,7.30
2023-08-06T02:21:00.614Z,6.93
2023-08-06T02:23:29.120Z,6.70
2023-08-06T02:26:02.116Z,6.70
2023-08-06T02:28:32.040Z,6.70
2023-08-06T02:31:00.517Z,6.07
2023-08-06T02:33:29.004Z,6.40
2023-08-06T02:36:04.418Z,6.03
2023-08-06T02:38:32.945Z,7.60
2023-08-06T02:41:01.322Z,6.50
2023-08-06T02:43:31.134Z,6.50
2023-08-06T02:46:00.131Z,7.20
2023-08-06T02:48:28.586Z,6.23
2023-08-06T02:51:00.450Z,6.60
2023-08-06T02:53:28.924Z,7.37
2023-08-06T02:55:57.544Z,6.40
2023-08-06T02:58:26.154Z,7.30
2023-08-06T03:01:08.148Z,7.80
2023-08-06T03:03:36.736Z,7.03
2023-08-06T03:06:05.347Z,6.93
2023-08-06T03:08:33.780Z,7.20
2023-08-06T03:11:02.239Z,7.87
2023-08-06T03:13:30.666Z,7.70
2023-08-06T03:16:00.146Z,6.70
2023-08-06T03:18:30.247Z,6.40
2023-08-06T03:20:59.089Z,5.47
2023-08-06T03:23:27.488Z,6.50
2023-08-06T03:25:55.854Z,6.83
2023-08-06T03:28:24.501Z,6.07
2023-08-06T03:31:02.372Z,6.70
2023-08-06T03:33:32.374Z,6.10
2023-08-06T03:36:00.837Z,6.53
2023-08-06T03:38:29.495Z,5.77
2023-08-06T03:40:58.012Z,5.50
2023-08-06T03:43:26.296Z,5.40
2023-08-06T03:45:54.782Z,5.60
2023-08-06T03:48:23.174Z,5.60
2023-08-06T03:50:52.982Z,5.20
2023-08-06T03:53:21.380Z,5.67
2023-08-06T03:55:49.806Z,5.87
2023-08-06T03:58:18.251Z,5.53
2023-08-06T04:00:46.719Z,5.10
2023-08-06T04:03:15.342Z,4.73
2023-08-06T04:05:43.825Z,5.10
2023-08-06T04:08:13.646Z,4.53
2023-08-06T04:10:42.015Z,4.37
2023-08-06T04:13:10.330Z,4.20
2023-08-06T04:15:38.791Z,3.67
2023-08-06T04:18:07.334Z,3.80
2023-08-06T04:20:35.768Z,4.30
2023-08-06T04:23:08.733Z,4.07
2023-08-06T04:25:38.646Z,4.33
2023-08-06T04:28:07.076Z,4.00
2023-08-06T04:30:35.578Z,4.33
2023-08-06T04:33:04.104Z,4.13
2023-08-06T04:35:32.524Z,4.93
2023-08-06T04:38:00.929Z,5.20
2023-08-06T04:40:29.309Z,4.40
2023-08-06T04:42:59.156Z,4.47
2023-08-06T04:45:27.564Z,4.90
2023-08-06T04:47:55.990Z,4.30
2023-08-06T04:50:24.472Z,5.07
2023-08-06T04:52:52.920Z,4.60
2023-08-06T04:55:21.325Z,4.83
2023-08-06T04:57:49.720Z,5.47
2023-08-06T05:00:19.645Z,5.30
2023-08-06T05:02:48.119Z,5.90
2023-08-06T05:05:16.713Z,4.60
2023-08-06T05:07:45.141Z,5.20
2023-08-06T05:10:13.577Z,5.43
2023-08-06T05:12:42.021Z,5.03
2023-08-06T05:15:11.505Z,4.67
2023-08-06T05:17:41.278Z,5.20
2023-08-06T05:20:10.982Z,4.77
2023-08-06T05:22:39.434Z,5.73
2023-08-06T05:25:09.060Z,7.47
2023-08-06T05:27:37.611Z,6.57
2023-08-06T05:30:08.086Z,7.37
2023-08-06T05:32:36.520Z,6.50
2023-08-06T05:35:07.520Z,7.60
2023-08-06T05:37:35.990Z,8.00
2023-08-06T05:40:05.306Z,10.47
2023-08-06T05:42:33.701Z,7.97
2023-08-06T05:45:02.100Z,7.40
2023-08-06T05:47:30.557Z,6.73
2023-08-06T05:49:58.934Z,8.30
2023-08-06T05:52:28.665Z,6.77
2023-08-06T05:54:57.184Z,7.10
2023-08-06T05:57:25.671Z,6.70
2023-08-06T05:59:54.122Z,6.27
2023-08-06T06:02:22.626Z,7.47
2023-08-06T06:04:51.133Z,7.67
2023-08-06T06:07:19.575Z,7.93
2023-08-06T06:09:49.347Z,8.47
2023-08-06T06:12:17.805Z,7.70
2023-08-06T06:14:46.376Z,7.97
2023-08-06T06:17:14.818Z,7.60
2023-08-06T06:19:43.559Z,8.53
2023-08-06T06:22:11.948Z,8.40
2023-08-06T06:24:40.596Z,9.03
2023-08-06T06:27:10.471Z,8.73
2023-08-06T06:29:38.884Z,8.70
2023-08-06T06:32:08.079Z,8.00
2023-08-06T06:34:37.158Z,9.47
2023-08-06T06:37:06.482Z,9.20
2023-08-06T06:39:35.101Z,7.70
2023-08-06T06:42:03.489Z,8.53
2023-08-06T06:44:33.254Z,9.07
2023-08-06T06:47:01.610Z,8.60
2023-08-06T06:49:30.063Z,7.73
2023-08-06T06:51:58.514Z,8.77
2023-08-06T06:54:26.876Z,7.40
2023-08-06T06:56:55.292Z,7.60
2023-08-06T06:59:23.714Z,5.37
2023-08-06T07:01:53.649Z,6.03
2023-08-06T07:04:22.370Z,6.10
2023-08-06T07:06:50.760Z,6.10
2023-08-06T07:09:19.518Z,5.70
2023-08-06T07:11:48.187Z,5.83
2023-08-06T07:14:16.660Z,5.20
2023-08-06T07:16:45.080Z,7.40
2023-08-06T07:19:15.029Z,6.40
2023-08-06T07:21:43.476Z,7.50
2023-08-06T07:24:12.777Z,6.70
2023-08-06T07:26:41.261Z,7.67
2023-08-06T07:29:09.658Z,7.30
2023-08-06T07:31:38.021Z,6.60
2023-08-06T07:34:06.581Z,7.00
2023-08-06T07:36:36.408Z,7.57
2023-08-06T07:39:07.365Z,6.40
2023-08-06T07:41:35.756Z,6.87
2023-08-06T07:44:04.188Z,6.10
2023-08-06T07:46:33.042Z,6.80
2023-08-06T07:49:01.581Z,5.90
2023-08-06T07:51:29.975Z,6.27
2023-08-06T07:54:00.885Z,6.37
2023-08-06T07:56:29.213Z,6.23
2023-08-06T07:58:57.772Z,5.70
2023-08-06T08:01:26.238Z,5.80
2023-08-06T08:03:54.607Z,6.83
2023-08-06T08:06:24.223Z,6.10
2023-08-06T08:08:53.076Z,5.80
2023-08-06T08:11:23.157Z,6.00
2023-08-06T08:13:51.532Z,5.63
2023-08-06T08:16:19.957Z,6.13
2023-08-06T08:18:48.401Z,6.93
2023-08-06T08:21:16.868Z,5.73
2023-08-06T08:23:45.446Z,5.80
2023-08-06T08:26:13.859Z,5.70
2023-08-06T08:28:43.633Z,5.80
2023-08-06T08:31:12.537Z,5.97
2023-08-06T08:33:41.146Z,6.27
2023-08-06T08:36:10.910Z,6.60
2023-08-06T08:38:39.301Z,6.50
2023-08-06T08:41:07.935Z,6.27
2023-08-06T08:43:36.431Z,5.13
2023-08-06T08:46:07.214Z,6.40
2023-08-06T08:48:35.740Z,6.70
2023-08-06T08:51:04.208Z,6.10
2023-08-06T08:53:32.586Z,7.20
2023-08-06T08:56:02.263Z,6.90
2023-08-06T08:58:33.382Z,6.83
2023-08-06T09:01:03.157Z,5.60
2023-08-06T09:03:33.473Z,7.57
2023-08-06T09:06:01.940Z,7.07
2023-08-06T09:08:34.059Z,7.00
2023-08-06T09:11:02.600Z,6.90
2023-08-06T09:13:31.134Z,7.40
2023-08-06T09:15:59.774Z,6.97
2023-08-06T09:18:29.954Z,8.40
2023-08-06T09:20:59.909Z,7.63
2023-08-06T09:23:32.033Z,7.33
2023-08-06T09:26:01.411Z,8.23
2023-08-06T09:28:39.618Z,8.20
2023-08-06T09:31:08.022Z,7.40
2023-08-06T09:33:38.072Z,9.10
2023-08-06T09:36:12.341Z,10.10
2023-08-06T09:38:42.304Z,9.10
2023-08-06T09:41:10.879Z,8.53
2023-08-06T09:43:45.192Z,8.40
2023-08-06T09:46:16.919Z,10.50
2023-08-06T09:48:48.069Z,9.13
2023-08-06T09:51:17.866Z,8.20
2023-08-06T09:53:46.444Z,9.53
2023-08-06T09:56:15.066Z,9.40
2023-08-06T09:58:44.220Z,9.90
2023-08-06T10:01:12.916Z,9.20
2023-08-06T10:03:41.483Z,9.83
2023-08-06T10:06:10.113Z,9.87
2023-08-06T10:08:41.780Z,10.67
2023-08-06T10:11:11.627Z,7.80
2023-08-06T10:13:40.383Z,6.10
2023-08-06T10:16:08.975Z,5.70
2023-08-06T10:18:38.324Z,4.47
2023-08-06T10:21:09.901Z,4.43
2023-08-06T10:23:41.926Z,4.60
2023-08-06T10:26:10.394Z,3.37
2023-08-06T10:28:40.213Z,3.77
2023-08-06T10:31:08.635Z,4.40
2023-08-06T10:33:45.371Z,4.97
2023-08-06T10:36:13.834Z,4.90
2023-08-06T10:38:50.617Z,4.80
2023-08-06T10:41:25.370Z,5.00
2023-08-06T10:43:53.859Z,5.67
2023-08-06T10:46:26.273Z,4.00
2023-08-06T10:48:54.715Z,5.00
2023-08-06T10:51:23.127Z,5.50
2023-08-06T10:53:52.989Z,4.57
2023-08-06T10:56:23.287Z,4.70
2023-08-06T10:58:52.695Z,4.70
2023-08-06T11:01:21.136Z,4.10
2023-08-06T11:03:50.473Z,4.70
2023-08-06T11:06:20.821Z,5.27
2023-08-06T11:08:54.556Z,4.10
2023-08-06T11:11:24.391Z,4.90
2023-08-06T11:13:53.358Z,4.20
2023-08-06T11:16:22.963Z,4.43
2023-08-06T11:18:51.351Z,3.90
2023-08-06T11:21:21.806Z,3.80
2023-08-06T11:23:52.013Z,4.63
2023-08-06T11:26:22.305Z,5.50
2023-08-06T11:28:51.152Z,4.93
2023-08-06T11:31:23.107Z,5.33
2023-08-06T11:33:53.049Z,5.10
2023-08-06T11:36:32.015Z,4.80
2023-08-06T11:39:01.961Z,5.07
2023-08-06T11:41:31.387Z,5.17
2023-08-06T11:43:59.911Z,4.70
2023-08-06T11:46:28.508Z,5.20
2023-08-06T11:48:57.297Z,3.90
2023-08-06T11:51:27.000Z,4.70
2023-08-06T11:53:57.766Z,5.37
2023-08-06T11:56:27.734Z,5.10
2023-08-06T11:58:56.903Z,5.30
2023-08-06T12:01:25.887Z,4.87
2023-08-06T12:03:54.430Z,4.30
2023-08-06T12:06:22.837Z,3.67
2023-08-06T12:08:51.994Z,4.97
2023-08-06T12:11:23.412Z,4.50
2023-08-06T12:13:54.898Z,4.67
2023-08-06T12:16:25.190Z,4.80
2023-08-06T12:18:53.673Z,5.33
2023-08-06T12:21:22.118Z,6.00
2023-08-06T12:23:50.470Z,6.40
2023-08-06T12:26:18.883Z,5.50
2023-08-06T12:28:47.263Z,6.93
2023-08-06T12:31:17.026Z,5.87
2023-08-06T12:33:45.617Z,6.40
2023-08-06T12:36:13.985Z,7.07
2023-08-06T12:38:42.322Z,6.73
2023-08-06T12:41:10.760Z,6.20
2023-08-06T12:43:39.191Z,6.73
2023-08-06T12:46:07.665Z,6.63
2023-08-06T12:48:37.461Z,6.70
2023-08-06T12:51:05.853Z,7.33
2023-08-06T12:53:34.233Z,8.93
2023-08-06T12:56:05.516Z,7.73
2023-08-06T12:58:33.985Z,7.90
2023-08-06T13:01:02.410Z,6.13
2023-08-06T13:03:33.314Z,7.83
2023-08-06T13:06:03.327Z,7.13
2023-08-06T13:08:31.774Z,7.20
2023-08-06T13:11:00.120Z,7.03
2023-08-06T13:13:28.690Z,6.43
2023-08-06T13:15:57.134Z,6.60
2023-08-06T13:18:25.529Z,7.03
2023-08-06T13:20:55.799Z,6.97
2023-08-06T13:23:25.598Z,5.80
2023-08-06T13:25:54.027Z,5.70
2023-08-06T13:28:22.467Z,7.00
2023-08-06T13:30:50.946Z,7.30
2023-08-06T13:33:19.451Z,6.70
2023-08-06T13:35:47.876Z,6.83
2023-08-06T13:38:16.338Z,7.00
2023-08-06T13:40:47.483Z,6.40
2023-08-06T13:43:18.159Z,6.20
2023-08-06T13:45:46.595Z,5.90
2023-08-06T13:48:15.042Z,6.07
2023-08-06T13:50:43.488Z,5.90
2023-08-06T13:53:11.847Z,6.10
2023-08-06T13:55:40.552Z,5.27
2023-08-06T13:58:10.515Z,5.77
2023-08-06T14:00:38.929Z,5.70
2023-08-06T14:03:07.317Z,6.13
2023-08-06T14:05:35.755Z,6.20
2023-08-06T14:08:04.206Z,5.90
2023-08-06T14:10:32.697Z,6.07
2023-08-06T14:13:09.979Z,6.20
2023-08-06T14:15:41.468Z,7.20
2023-08-06T14:18:10.433Z,5.40
2023-08-06T14:20:38.847Z,6.50
2023-08-06T14:23:07.237Z,6.93
2023-08-06T14:25:35.691Z,5.43
2023-08-06T14:28:04.173Z,6.10
2023-08-06T14:30:32.607Z,7.33
2023-08-06T14:33:16.523Z,6.83
2023-08-06T14:35:49.659Z,6.57
2023-08-06T14:38:18.112Z,7.40
2023-08-06T14:40:46.572Z,6.60
2023-08-06T14:43:15.895Z,7.47
2023-08-06T14:45:44.495Z,8.93
2023-08-06T14:48:14.236Z,7.20
2023-08-06T14:50:42.779Z,7.27
2023-08-06T14:53:12.868Z,7.47
2023-08-06T14:55:42.886Z,7.87
2023-08-06T14:58:11.336Z,7.20
2023-08-06T15:00:39.814Z,7.67
2023-08-06T15:03:08.205Z,8.83
2023-08-06T15:05:38.063Z,8.37
2023-08-06T15:08:06.463Z,9.40
2023-08-06T15:10:34.969Z,11.87
2023-08-06T15:13:04.223Z,9.10
2023-08-06T15:15:32.634Z,8.20
2023-08-06T15:18:01.064Z,9.50
2023-08-06T15:20:29.582Z,6.37
2023-08-06T15:22:59.373Z,5.10
2023-08-06T15:25:28.733Z,3.97
2023-08-06T15:27:57.160Z,4.60
2023-08-06T15:30:25.593Z,4.70
2023-08-06T15:32:54.025Z,4.33
2023-08-06T15:35:22.661Z,4.50
2023-08-06T15:37:51.076Z,4.37
2023-08-06T15:40:20.830Z,3.33
2023-08-06T15:42:49.207Z,3.80
2023-08-06T15:45:17.764Z,2.97
2023-08-06T15:47:46.174Z,3.50
2023-08-06T15:50:15.035Z,3.23
2023-08-06T15:52:43.472Z,2.80
2023-08-06T15:55:12.080Z,3.27
2023-08-06T15:57:41.850Z,2.80
2023-08-06T16:00:11.958Z,2.60
2023-08-06T16:02:40.389Z,2.20
2023-08-06T16:05:09.558Z,2.83
2023-08-06T16:07:38.050Z,2.87
2023-08-06T16:10:07.816Z,2.90
2023-08-06T16:12:36.196Z,3.50
2023-08-06T16:15:07.834Z,3.10
2023-08-06T16:17:36.204Z,3.07
2023-08-06T16:20:04.850Z,3.20
2023-08-06T16:22:33.240Z,2.90
2023-08-06T16:25:01.617Z,2.90
2023-08-06T16:27:30.135Z,3.30
2023-08-06T16:29:59.186Z,2.67
2023-08-06T16:32:29.101Z,3.50
2023-08-06T16:34:57.678Z,3.10
2023-08-06T16:37:26.174Z,3.40
2023-08-06T16:39:54.676Z,3.50
2023-08-06T16:42:23.138Z,2.80
2023-08-06T16:44:51.489Z,3.00
2023-08-06T16:47:19.929Z,2.70
2023-08-06T16:49:49.590Z,3.30
2023-08-06T16:52:19.044Z,3.53
2023-08-06T16:54:47.527Z,3.63
2023-08-06T16:57:15.895Z,2.97
2023-08-06T16:59:44.306Z,3.20
2023-08-06T17:02:13.301Z,2.97
2023-08-06T17:04:41.702Z,2.77
2023-08-06T17:07:11.452Z,3.17
2023-08-06T17:09:39.801Z,3.43
2023-08-06T17:12:09.340Z,2.63
2023-08-06T17:14:37.820Z,3.23
2023-08-06T17:17:06.704Z,3.57
2023-08-06T17:19:35.068Z,3.83
2023-08-06T17:22:03.479Z,3.80
2023-08-06T17:24:33.229Z,3.67
2023-08-06T17:27:01.679Z,3.30
2023-08-06T17:29:30.093Z,4.00
2023-08-06T17:31:58.433Z,2.93
2023-08-06T17:34:28.916Z,2.90
2023-08-06T17:36:57.470Z,2.10
2023-08-06T17:39:25.966Z,2.10
2023-08-06T17:41:55.672Z,3.00
2023-08-06T17:44:24.166Z,2.27
2023-08-06T17:46:52.825Z,2.23
2023-08-06T17:49:21.476Z,2.37
2023-08-06T17:51:49.948Z,2.10
2023-08-06T17:54:18.390Z,1.87
2023-08-06T17:56:46.774Z,2.37
2023-08-06T17:59:16.586Z,2.67
2023-08-06T18:01:45.061Z,2.93
2023-08-06T18:04:13.509Z,2.73
2023-08-06T18:06:42.010Z,2.17
2023-08-06T18:09:10.568Z,2.80
2023-08-06T18:11:39.006Z,2.80
2023-08-06T18:14:07.446Z,3.30
2023-08-06T18:16:37.186Z,2.40
2023-08-06T18:19:05.687Z,2.70
2023-08-06T18:21:34.144Z,2.50
2023-08-06T18:24:02.569Z,2.70
2023-08-06T18:26:31.175Z,2.30
2023-08-06T18:28:59.628Z,2.60
2023-08-06T18:31:28.056Z,2.97
2023-08-06T18:33:57.996Z,2.50
2023-08-06T18:36:26.426Z,3.07
2023-08-06T18:38:55.074Z,2.87
2023-08-06T18:41:23.584Z,3.63
2023-08-06T18:43:52.002Z,3.23
2023-08-06T18:46:20.434Z,3.87
2023-08-06T18:48:48.823Z,3.17
2023-08-06T18:51:21.006Z,2.73
2023-08-06T18:53:49.464Z,3.50
2023-08-06T18:56:17.847Z,2.80
2023-08-06T18:58:46.244Z,3.53
2023-08-06T19:01:14.712Z,3.33
2023-08-06T19:03:43.823Z,4.00
2023-08-06T19:06:12.355Z,4.10
2023-08-06T19:08:42.824Z,4.43
2023-08-06T19:11:11.275Z,3.87
2023-08-06T19:13:39.601Z,4.10
2023-08-06T19:16:08.070Z,3.27
2023-08-06T19:18:36.531Z,3.63
2023-08-06T19:21:04.976Z,3.50
2023-08-06T19:23:33.404Z,3.23
2023-08-06T19:26:03.587Z,3.90
2023-08-06T19:28:32.007Z,3.63
2023-08-06T19:31:00.939Z,3.10
2023-08-06T19:33:29.423Z,3.80
2023-08-06T19:35:57.924Z,3.77
2023-08-06T19:38:26.777Z,3.47
2023-08-06T19:41:06.278Z,3.80
2023-08-06T19:43:36.935Z,3.70
2023-08-06T19:46:05.574Z,3.83
2023-08-06T19:48:34.661Z,3.67
2023-08-06T19:51:04.346Z,3.77
2023-08-06T19:53:33.629Z,4.30
2023-08-06T19:56:03.769Z,5.13
2023-08-06T19:58:34.954Z,4.80
2023-08-06T20:01:03.986Z,5.00
2023-08-06T20:03:33.763Z,4.53
2023-08-06T20:06:03.120Z,5.83
2023-08-06T20:08:33.324Z,4.67
2023-08-06T20:11:01.737Z,5.03
2023-08-06T20:13:30.193Z,5.90
2023-08-06T20:16:01.522Z,5.37
2023-08-06T20:18:30.168Z,6.10
2023-08-06T20:20:58.821Z,6.23
2023-08-06T20:23:28.079Z,6.70
2023-08-06T20:25:56.668Z,6.77
2023-08-06T20:28:26.816Z,7.57
2023-08-06T20:30:56.387Z,6.00
2023-08-06T20:33:26.234Z,7.50
2023-08-06T20:35:55.671Z,7.80
2023-08-06T20:38:25.863Z,8.13
2023-08-06T20:40:56.886Z,8.73
2023-08-06T20:43:26.496Z,9.00
2023-08-06T20:45:55.472Z,9.90
2023-08-06T20:48:26.148Z,8.63
2023-08-06T20:50:54.667Z,8.20
2023-08-06T20:53:24.079Z,8.13
2023-08-06T20:56:00.993Z,8.20
2023-08-06T20:58:29.807Z,6.70
2023-08-06T21:00:58.356Z,7.10
2023-08-06T21:03:28.499Z,7.13
2023-08-06T21:06:01.718Z,5.73
2023-08-06T21:08:30.964Z,5.50
2023-08-06T21:10:59.363Z,4.80
2023-08-06T21:13:29.994Z,5.00
2023-08-06T21:15:59.475Z,3.80
2023-08-06T21:18:31.063Z,4.60
2023-08-06T21:20:59.512Z,4.37
2023-08-06T21:23:27.887Z,4.03
2023-08-06T21:25:59.876Z,3.20
2023-08-06T21:28:29.963Z,4.40
2023-08-06T21:30:58.815Z,3.60
2023-08-06T21:33:29.564Z,4.10
2023-08-06T21:35:59.622Z,3.00
2023-08-06T21:38:28.030Z,3.17
2023-08-06T21:40:56.925Z,2.63
2023-08-06T21:43:25.354Z,2.47
2023-08-06T21:45:53.801Z,2.60
2023-08-06T21:48:23.689Z,3.10
2023-08-06T21:50:53.436Z,2.60
2023-08-06T21:53:21.828Z,2.77
2023-08-06T21:55:50.214Z,2.00
2023-08-06T21:58:18.536Z,2.70
2023-08-06T22:00:47.020Z,2.27
2023-08-06T22:03:15.589Z,3.00
2023-08-06T22:05:44.032Z,2.83
2023-08-06T22:08:14.232Z,2.30
2023-08-06T22:10:42.681Z,2.60
2023-08-06T22:13:11.185Z,2.80
2023-08-06T22:15:39.513Z,1.87
2023-08-06T22:18:08.558Z,2.20
2023-08-06T22:20:37.053Z,1.80
2023-08-06T22:23:05.434Z,1.83
2023-08-06T22:25:35.197Z,1.63
2023-08-06T22:28:04.195Z,1.90
2023-08-06T22:30:32.536Z,2.00
2023-08-06T22:33:01.022Z,1.27
2023-08-06T22:35:29.651Z,1.93
2023-08-06T22:37:58.166Z,1.53
2023-08-06T22:40:26.636Z,2.23
2023-08-06T22:42:56.393Z,1.87
2023-08-06T22:45:24.928Z,2.00
2023-08-06T22:47:53.289Z,2.20
2023-08-06T22:50:21.767Z,1.70
2023-08-06T22:52:50.194Z,2.40
2023-08-06T22:55:40.655Z,2.10
2023-08-06T22:58:08.542Z,2.07
2023-08-06T23:00:36.902Z,2.03
2023-08-06T23:03:10.703Z,1.77
2023-08-06T23:05:39.661Z,2.10
2023-08-06T23:08:08.083Z,2.60
2023-08-06T23:10:36.850Z,2.20
2023-08-06T23:13:08.877Z,1.83
2023-08-06T23:15:37.274Z,2.33
2023-08-06T23:18:05.853Z,2.50
2023-08-06T23:20:34.435Z,2.07
2023-08-06T23:23:02.869Z,1.90
2023-08-06T23:25:31.343Z,2.30
2023-08-06T23:27:59.818Z,2.77
2023-08-06T23:30:30.662Z,2.97
2023-08-06T23:32:59.118Z,2.50
2023-08-06T23:35:27.580Z,3.07
2023-08-06T23:37:56.058Z,2.97
2023-08-06T23:40:24.896Z,2.27
2023-08-06T23:42:53.257Z,2.33
2023-08-06T23:45:21.654Z,2.53
2023-08-06T23:47:51.520Z,2.80
2023-08-06T23:50:19.925Z,2.50
2023-08-06T23:52:48.382Z,2.50
2023-08-06T23:55:16.909Z,2.90
2023-08-06T23:57:45.298Z,2.90
